Tuesday, January 16, 2018, 12:22 PM EST
Back to Local

KACY, Atlantic City International

Location: Absecon, NJ, United States Lat: 39.467
Local Time: 12:22 PM EST (17:22 GMT) Lon: -74.583
Time Zone: US/Eastern Elev: 75 ft

Show me the last for .
Show Coded

Time T Td Feel RH Dir Speed Gust Alt SLP Vis Weather Sky Remarks
2018-01-16 11:54 44 31 39 59 110° 9 - 30.45 30.45 10 CLR None
2018-01-16 10:54 42 31 36 64 90° 10 - 30.47 30.47 10 CLR None
2018-01-16 09:54 40 32 34 73 80° 8 - 30.49 30.49 10 FEW031 None
2018-01-16 08:54 33 30 29 88 Variable 5 - 30.49 30.49 10 OVC031 None
2018-01-16 07:54 29 27 25 92 330° 3 - 30.50 30.50 10 OVC031 None
2018-01-16 06:54 28 26 24 92 70° 3 - 30.48 30.48 10 OVC031 6-hr Min Temp (7am): 24.1°F
6-hr Max Temp (7am): 28.0°F
2018-01-16 05:54 28 26 24 92 30° 3 - 30.48 30.48 10 OVC034 None
2018-01-16 04:54 27 25 23 92 10° 3 - 30.47 30.47 10 BKN034 None
2018-01-16 04:21 27 25 23 92 10° 3 - 30.47 - 10 SCT018 OVC033 None
2018-01-16 04:14 27 25 23 92 30° 3 - 30.47 - 10 BKN018 OVC033 None
2018-01-16 03:54 26 24 22 92 350° 3 - 30.48 30.48 10 SCT017 OVC031 None
2018-01-16 02:54 25 22 - 87 - Calm - 30.47 30.47 10 BKN032 None
2018-01-16 01:54 25 23 18 92 290° 6 - 30.46 30.46 10 FEW016 BKN034 None
2018-01-16 01:08 26 24 21 92 330° 5 - 30.46 - 10 SCT018 OVC038 None
2018-01-16 00:54 25 24 21 96 320° 3 - 30.47 30.47 10 BKN018 OVC038 6-hr Min Temp (1am): 23.0°F
6-hr Max Temp (1am): 32.0°F
2018-01-16 00:30 25 24 21 96 300° 3 - 30.47 - 10 BKN018 OVC041 None
2018-01-15 23:54 24 22 20 91 320° 3 - 30.46 30.46 10 CLR 24-hr Min Temp (12am): 16.0°F
24-hr Max Temp (12am): 35.1°F
2018-01-15 22:54 28 25 - 88 - Calm - 30.48 30.48 10 CLR None
2018-01-15 21:54 28 26 23 92 50° 5 - 30.47 30.47 10 FEW046 None
2018-01-15 20:54 30 26 26 84 40° 3 - 30.47 30.47 10 FEW046 None
2018-01-15 19:54 32 27 26 81 40° 6 - 30.50 30.50 10 OVC047 None
2018-01-15 18:54 32 27 26 81 40° 7 - 30.50 30.50 10 OVC048 6-hr Min Temp (7pm): 32.0°F
6-hr Max Temp (7pm): 35.1°F
2018-01-15 18:05 32 27 23 81 50° 12 - 30.50 - 10 SCT015 OVC047 None
2018-01-15 17:54 32 27 23 81 50° 13 - 30.49 30.49 10 BKN015 OVC047 None
2018-01-15 16:54 32 27 24 81 50° 10 - 30.50 30.50 10 OVC013 None
2018-01-15 15:54 32 27 23 81 60° 13 - 30.47 30.47 10 OVC014 None
2018-01-15 15:29 32 26 22 78 50° 15 - 30.47 - 10 OVC014 None
2018-01-15 14:54 33 27 21 77 50° 14 23 30.47 30.47 10 OVC015 None
2018-01-15 14:03 34 27 22 75 50° 17 24 30.47 - 10 OVC015 None
2018-01-15 13:54 34 27 21 75 30° 17 26 30.47 30.47 10 OVC014 None
2018-01-15 12:54 33 27 22 77 50° 18 - 30.49 30.49 10 OVC013 6-hr Min Temp (1pm): 21.0°F
6-hr Max Temp (1pm): 35.1°F

Support USWX by starting your Amazon purchase here.